createdAt,value
2023-01-21T00:02:41.856Z,8.30
2023-01-21T00:12:47.544Z,7.10
2023-01-21T00:22:55.172Z,7.10
2023-01-21T00:33:01.111Z,6.90
2023-01-21T00:43:06.835Z,7.90
2023-01-21T00:53:12.532Z,7.60
2023-01-21T01:03:18.540Z,7.20
2023-01-21T01:13:24.309Z,8.00
2023-01-21T01:23:30.494Z,6.20
2023-01-21T01:33:36.583Z,6.40
2023-01-21T01:43:58.862Z,7.20
2023-01-21T01:54:05.886Z,9.60
2023-01-21T02:04:19.242Z,8.20
2023-01-21T02:14:25.030Z,8.60
2023-01-21T02:25:06.672Z,7.90
2023-01-21T02:35:20.076Z,6.80
2023-01-21T02:45:33.913Z,8.40
2023-01-21T02:55:42.024Z,5.60
2023-01-21T03:06:16.394Z,6.50
2023-01-21T03:16:46.711Z,6.30
2023-01-21T03:26:57.243Z,6.30
2023-01-21T03:37:08.800Z,7.80
2023-01-21T03:47:24.358Z,7.30
2023-01-21T03:57:30.293Z,7.80
2023-01-21T04:07:36.015Z,7.10
2023-01-21T04:17:41.771Z,5.80
2023-01-21T04:27:47.499Z,5.80
2023-01-21T04:37:53.290Z,4.60
2023-01-21T04:47:59.019Z,5.80
2023-01-21T04:58:04.787Z,5.10
2023-01-21T05:08:10.673Z,5.10
2023-01-21T05:18:16.732Z,5.30
2023-01-21T05:28:22.820Z,6.00
2023-01-21T05:38:28.922Z,4.70
2023-01-21T05:48:34.914Z,3.70
2023-01-21T05:58:40.970Z,3.70
2023-01-21T06:08:47.153Z,4.20
2023-01-21T06:28:58.579Z,4.40
2023-01-21T06:39:04.570Z,5.90
2023-01-21T06:49:10.475Z,5.60
2023-01-21T06:59:16.268Z,4.40
2023-01-21T07:09:22.175Z,4.70
2023-01-21T07:19:28.269Z,5.60
2023-01-21T07:29:34.103Z,4.60
2023-01-21T07:39:39.934Z,4.40
2023-01-21T07:49:45.909Z,5.00
2023-01-21T07:59:51.636Z,5.10
2023-01-21T08:09:57.346Z,4.00
2023-01-21T08:20:04.187Z,3.40
2023-01-21T08:30:11.889Z,3.50
2023-01-21T08:40:18.012Z,4.90
2023-01-21T08:50:24.101Z,4.70
2023-01-21T09:00:29.988Z,4.10
2023-01-21T09:10:53.627Z,3.30
2023-01-21T09:21:04.836Z,4.20
2023-01-21T09:31:12.598Z,3.90
2023-01-21T09:41:25.198Z,4.50
2023-01-21T09:51:43.507Z,4.80
2023-01-21T10:01:51.203Z,4.00
2023-01-21T10:12:16.637Z,3.80
2023-01-21T10:22:26.977Z,4.30
2023-01-21T10:32:33.799Z,4.00
2023-01-21T10:42:55.689Z,4.10
2023-01-21T10:53:08.058Z,3.80
2023-01-21T11:03:19.596Z,4.40
2023-01-21T11:13:26.172Z,4.00
2023-01-21T11:23:34.796Z,4.20
2023-01-21T11:33:42.302Z,3.80
2023-01-21T11:43:50.456Z,2.90
2023-01-21T11:54:19.726Z,3.20
2023-01-21T12:04:26.789Z,2.70
2023-01-21T12:14:45.233Z,2.80
2023-01-21T12:25:07.778Z,3.30
2023-01-21T12:35:19.407Z,3.00
2023-01-21T12:45:29.847Z,3.70
2023-01-21T12:55:50.085Z,3.50
2023-01-21T13:06:02.952Z,3.30
2023-01-21T13:16:11.452Z,3.10
2023-01-21T13:26:25.646Z,3.80
2023-01-21T13:36:46.805Z,5.00
2023-01-21T13:47:05.132Z,3.60
2023-01-21T13:57:40.147Z,4.70
2023-01-21T14:07:51.318Z,3.80
2023-01-21T14:18:13.840Z,4.60
2023-01-21T14:28:25.795Z,5.80
2023-01-21T14:38:43.536Z,7.00
2023-01-21T14:49:00.242Z,5.70
2023-01-21T14:59:17.801Z,7.30
2023-01-21T15:09:28.014Z,6.20
2023-01-21T15:19:35.691Z,7.90
2023-01-21T15:29:43.119Z,9.10
2023-01-21T15:39:52.253Z,8.90
2023-01-21T15:50:09.080Z,10.70
2023-01-21T16:00:31.423Z,10.00
2023-01-21T16:10:48.006Z,9.50
2023-01-21T16:20:56.949Z,9.70
2023-01-21T16:31:05.680Z,11.50
2023-01-21T16:41:27.541Z,12.50
2023-01-21T16:51:35.155Z,11.30
2023-01-21T17:01:41.400Z,10.10
2023-01-21T17:11:49.746Z,11.80
2023-01-21T17:22:01.505Z,11.80
2023-01-21T17:32:23.471Z,18.50
2023-01-21T17:42:38.899Z,15.50
2023-01-21T17:52:50.871Z,16.60
2023-01-21T18:02:56.736Z,17.20
2023-01-21T18:13:02.672Z,16.80
2023-01-21T18:23:11.479Z,17.50
2023-01-21T18:33:18.102Z,18.90
2023-01-21T18:43:24.052Z,17.70
2023-01-21T18:53:29.939Z,20.90
2023-01-21T19:03:35.763Z,21.70
2023-01-21T19:13:41.612Z,18.00
2023-01-21T19:23:47.713Z,18.70
2023-01-21T19:33:53.655Z,17.90
2023-01-21T19:43:59.613Z,18.50
2023-01-21T19:54:05.443Z,19.80
2023-01-21T20:04:12.128Z,19.10
2023-01-21T20:14:17.882Z,19.00
2023-01-21T20:24:23.865Z,18.60
2023-01-21T20:34:31.467Z,17.00
2023-01-21T20:44:37.277Z,20.60
2023-01-21T20:54:43.081Z,21.80
2023-01-21T21:04:48.987Z,21.10
2023-01-21T21:14:54.749Z,20.00
2023-01-21T21:25:00.616Z,20.40
2023-01-21T21:35:06.923Z,17.30
2023-01-21T21:45:13.537Z,18.00
2023-01-21T22:05:25.562Z,18.80
2023-01-21T22:15:31.392Z,19.70
2023-01-21T22:25:37.105Z,21.10
2023-01-21T22:35:45.155Z,18.80
2023-01-21T22:45:51.773Z,18.80
2023-01-21T22:55:59.238Z,18.70
2023-01-21T23:06:09.180Z,17.10
2023-01-21T23:16:18.458Z,16.00
2023-01-21T23:26:24.337Z,19.00
2023-01-21T23:36:30.499Z,23.80
2023-01-21T23:46:36.407Z,20.90
2023-01-21T23:56:42.461Z,19.20
